Ischia Jet — IOBI — position and weather

sailwx.info

Track history (hours):
 
Tides and Currents Weather Stations Pressure Air Temp Water Temp Dewpoint Dewpoint Depression Visibility Wind Speed Wind Dir Waves Ship Positions

Ischia Jet

Last reported at 2015-May-06 16:07 UTC. Time now 2015-May-07 02:35 UTC.
Position N 40°36' E 014°32'.

Length 42 m; draft 1.2 m.

Type: Passenger vessel. MMSI: 247048700.

Date/timePositionNaut miles runAvg speedWind from/ knotsBaromVisibWave heightAir tempDewpointWater temp
2015-May-06 16:07N 40°36' E 014°32'915.3
2015-May-06 15:31N 40°34' E 014°20'4 4.6
2015-May-06 14:34N 40°34' E 014°15'0 0.3
2015-May-06 13:33N 40°33' E 014°14'8 7.7
2015-May-06 12:33N 40°38' E 014°23'8 7.7
2015-May-06 11:33N 40°33' E 014°14'4 4.4
2015-May-06 10:33N 40°37' E 014°17'1210.5
2015-May-06 09:22N 40°50' E 014°17'1620.2
2015-May-06 08:33N 40°33' E 014°14'11 9.5
2015-May-06 07:23N 40°37' E 014°28'3 0.2
2015-May-05 16:08N 40°36' E 014°32'1015.9
2015-May-05 15:32N 40°34' E 014°20'3 3.4
2015-May-05 14:33N 40°34' E 014°15'1 0.8
2015-May-05 13:33N 40°33' E 014°14'0 0.0
2015-May-05 12:33N 40°33' E 014°14'0 0.0
2015-May-05 11:33N 40°33' E 014°14'5 5.5
2015-May-05 10:33N 40°39' E 014°16'11 9.3
2015-May-05 09:21N 40°50' E 014°17'1720.6
2015-May-05 08:33N 40°33' E 014°14'4 0.2
2015-May-04 15:29N 40°34' E 014°20'4 4.0
2015-May-04 14:33N 40°34' E 014°15'0 0.5
2015-May-04 13:33N 40°33' E 014°14'0 0.0
2015-May-04 12:33N 40°33' E 014°14'1 1.3
2015-May-04 11:33N 40°34' E 014°15'1512.6
2015-May-04 10:21N 40°50' E 014°17'1620.0
2015-May-04 09:32N 40°33' E 014°14'0 0.0
2015-May-04 08:31N 40°33' E 014°14'4 0.2
2015-May-03 15:34N 40°34' E 014°20'5 4.4
2015-May-03 14:30N 40°38' E 014°23'8 8.0
2015-May-03 13:33N 40°33' E 014°14'0 0.2
2015-May-03 12:32N 40°34' E 014°14'0 0.0
2015-May-03 11:33N 40°34' E 014°14'6 5.9
2015-May-03 10:33N 40°39' E 014°16'11 9.4
2015-May-03 09:25N 40°50' E 014°16'1718.3
2015-May-03 08:30N 40°33' E 014°14'1 0.0
2015-May-02 15:27N 40°34' E 014°15'7 5.6
2015-May-02 14:13N 40°38' E 014°23'811.6
2015-May-02 13:33N 40°33' E 014°14'1 0.6
2015-May-02 12:33N 40°34' E 014°14'0 0.0
2015-May-02 11:33N 40°34' E 014°14'12 5.1
2015-May-02 09:10N 40°46' E 014°16'1214.5
2015-May-02 08:20N 40°33' E 014°14'1 0.0
2015-May-01 15:21N 40°34' E 014°15'1 0.3
2015-May-01 13:33N 40°33' E 014°14'0 0.1
2015-May-01 12:34N 40°33' E 014°14'0 0.0
2015-May-01 11:33N 40°33' E 014°14'17 7.6
2015-May-01 09:22N 40°50' E 014°17'1720.2
2015-May-01 08:32N 40°33' E 014°14'14 0.8
2015-Apr-30 16:06N 40°36' E 014°32'1116.5
2015-Apr-30 15:26N 40°34' E 014°18'2 2.5
2015-Apr-30 14:33N 40°34' E 014°15'0 0.3
2015-Apr-30 13:23N 40°33' E 014°14'0 0.0
2015-Apr-30 12:33N 40°33' E 014°14'6 6.4
2015-Apr-30 11:33N 40°40' E 014°17'10 8.9
2015-Apr-30 10:27N 40°49' E 014°17'1616.3
2015-Apr-30 09:27N 40°33' E 014°14'0 0.0
2015-Apr-30 08:28N 40°33' E 014°14'  
2015-Apr-27 16:03N 40°36' E 014°33'816.5
2015-Apr-27 15:33N 40°34' E 014°22'4 3.6
2015-Apr-27 14:33N 40°38' E 014°23'8 7.7
2015-Apr-27 13:33N 40°33' E 014°14'0 0.0
2015-Apr-27 12:33N 40°33' E 014°14'7 6.9
2015-Apr-27 11:33N 40°40' E 014°16'9 8.8
2015-Apr-27 10:31N 40°49' E 014°17'1616.5
2015-Apr-27 09:33N 40°33' E 014°14'0 0.0
2015-Apr-27 08:29N 40°33' E 014°14'7 6.9
2015-Apr-27 07:31N 40°34' E 014°23'7 0.4
2015-Apr-26 16:13N 40°36' E 014°32'  
Track history (hours):
 
Tides and Currents Weather Stations Pressure Air Temp Water Temp Dewpoint Dewpoint Depression Visibility Wind Speed Wind Dir Waves Ship Positions

Ischia Jet

Last reported at 2015-May-06 16:07 UTC. Time now 2015-May-07 02:35 UTC.
Position N 40°36' E 014°32'.

Length 42 m; draft 1.2 m.

Type: Passenger vessel. MMSI: 247048700.

Date/timePositionNaut miles runAvg speedWind from/ knotsBaromVisibWave heightAir tempDewpointWater temp
2015-May-06 16:07N 40°36' E 014°32'915.3
2015-May-06 15:31N 40°34' E 014°20'4 4.6
2015-May-06 14:34N 40°34' E 014°15'0 0.3
2015-May-06 13:33N 40°33' E 014°14'8 7.7
2015-May-06 12:33N 40°38' E 014°23'8 7.7
2015-May-06 11:33N 40°33' E 014°14'4 4.4
2015-May-06 10:33N 40°37' E 014°17'1210.5
2015-May-06 09:22N 40°50' E 014°17'1620.2
2015-May-06 08:33N 40°33' E 014°14'11 9.5
2015-May-06 07:23N 40°37' E 014°28'3 0.2
2015-May-05 16:08N 40°36' E 014°32'1015.9
2015-May-05 15:32N 40°34' E 014°20'3 3.4
2015-May-05 14:33N 40°34' E 014°15'1 0.8
2015-May-05 13:33N 40°33' E 014°14'0 0.0
2015-May-05 12:33N 40°33' E 014°14'0 0.0
2015-May-05 11:33N 40°33' E 014°14'5 5.5
2015-May-05 10:33N 40°39' E 014°16'11 9.3
2015-May-05 09:21N 40°50' E 014°17'1720.6
2015-May-05 08:33N 40°33' E 014°14'4 0.2
2015-May-04 15:29N 40°34' E 014°20'4 4.0
2015-May-04 14:33N 40°34' E 014°15'0 0.5
2015-May-04 13:33N 40°33' E 014°14'0 0.0
2015-May-04 12:33N 40°33' E 014°14'1 1.3
2015-May-04 11:33N 40°34' E 014°15'1512.6
2015-May-04 10:21N 40°50' E 014°17'1620.0
2015-May-04 09:32N 40°33' E 014°14'0 0.0
2015-May-04 08:31N 40°33' E 014°14'4 0.2
2015-May-03 15:34N 40°34' E 014°20'5 4.4
2015-May-03 14:30N 40°38' E 014°23'8 8.0
2015-May-03 13:33N 40°33' E 014°14'0 0.2
2015-May-03 12:32N 40°34' E 014°14'0 0.0
2015-May-03 11:33N 40°34' E 014°14'6 5.9
2015-May-03 10:33N 40°39' E 014°16'11 9.4
2015-May-03 09:25N 40°50' E 014°16'1718.3
2015-May-03 08:30N 40°33' E 014°14'1 0.0
2015-May-02 15:27N 40°34' E 014°15'7 5.6
2015-May-02 14:13N 40°38' E 014°23'811.6
2015-May-02 13:33N 40°33' E 014°14'1 0.6
2015-May-02 12:33N 40°34' E 014°14'0 0.0
2015-May-02 11:33N 40°34' E 014°14'12 5.1
2015-May-02 09:10N 40°46' E 014°16'1214.5
2015-May-02 08:20N 40°33' E 014°14'1 0.0
2015-May-01 15:21N 40°34' E 014°15'1 0.3
2015-May-01 13:33N 40°33' E 014°14'0 0.1
2015-May-01 12:34N 40°33' E 014°14'0 0.0
2015-May-01 11:33N 40°33' E 014°14'17 7.6
2015-May-01 09:22N 40°50' E 014°17'1720.2
2015-May-01 08:32N 40°33' E 014°14'14 0.8
2015-Apr-30 16:06N 40°36' E 014°32'1116.5
2015-Apr-30 15:26N 40°34' E 014°18'2 2.5
2015-Apr-30 14:33N 40°34' E 014°15'0 0.3
2015-Apr-30 13:23N 40°33' E 014°14'0 0.0
2015-Apr-30 12:33N 40°33' E 014°14'6 6.4
2015-Apr-30 11:33N 40°40' E 014°17'10 8.9
2015-Apr-30 10:27N 40°49' E 014°17'1616.3
2015-Apr-30 09:27N 40°33' E 014°14'0 0.0
2015-Apr-30 08:28N 40°33' E 014°14'  
2015-Apr-27 16:03N 40°36' E 014°33'816.5
2015-Apr-27 15:33N 40°34' E 014°22'4 3.6
2015-Apr-27 14:33N 40°38' E 014°23'8 7.7
2015-Apr-27 13:33N 40°33' E 014°14'0 0.0
2015-Apr-27 12:33N 40°33' E 014°14'7 6.9
2015-Apr-27 11:33N 40°40' E 014°16'9 8.8
2015-Apr-27 10:31N 40°49' E 014°17'1616.5
2015-Apr-27 09:33N 40°33' E 014°14'0 0.0
2015-Apr-27 08:29N 40°33' E 014°14'7 6.9
2015-Apr-27 07:31N 40°34' E 014°23'7 0.4
2015-Apr-26 16:13N 40°36' E 014°32'  

Dump ship's entire track history